Flight Track Log - Related Links

Times and Time Zones

All times are in EDT time to prevent confusion due to time zone crossing. See the N911TW flight status page for this flight to view local times or setup timezone preferences in your user account.

Time Position Orientation Groundspeed Altitude Reporting Facility
EDT Latitude Longitude Course Direction KTS MPH feet Rate Location/Type
Fri 02:31:00 PM 38.0625 -80.5739 327° Northwest  Level FlightAware Approximate
Fri 02:35:46 PM 37.8642 -80.4711 327° Northwest 134 154 3,600  Level Indianapolis Center
Fri 02:36:29 PM 37.8894 -80.4967 321° Northwest 161 185 3,800 346 Climbing Washington Center
Fri 02:37:30 PM 37.9217 -80.5225 328° Northwest 156 180 4,200 446 Climbing Washington Center
Fri 02:38:30 PM 37.9561 -80.5511 327° Northwest 151 174 4,700 508 Climbing Washington Center
Fri 02:39:28 PM 37.9922 -80.5797 328° Northwest 151 174 5,200 407 Climbing Washington Center
Fri 02:40:28 PM 38.0267 -80.6058 329° Northwest 151 174 5,500 298 Climbing Washington Center
Fri 02:41:29 PM 38.0589 -80.6317 328° Northwest 151 174 5,800 295 Climbing Washington Center
Fri 02:42:30 PM 38.0911 -80.6628 323° Northwest 151 174 6,100 198 Climbing Washington Center
Fri 02:43:00 PM 38.1058 -80.6669 347° North 143 165 6,100 250 Level Indianapolis Center
Fri 02:44:00 PM 38.1457 -80.6889 337° Northwest  Level FlightAware Approximate
Fri 02:46:06 PM 38.2142 -80.7569 326° Northwest 148 170 7,000  Level Indianapolis Center
Fri 02:47:08 PM 38.2517 -80.7872 328° Northwest 156 180 7,000  Level Indianapolis Center
Fri 02:48:11 PM 38.2881 -80.8172 327° Northwest 157 181 7,000  Level Indianapolis Center
Fri 02:49:13 PM 38.3244 -80.8483 326° Northwest 158 182 7,000  Level Indianapolis Center
Fri 02:50:15 PM 38.3678 -80.8836 327° Northwest 152 175 7,000 194 Level Indianapolis Center
Fri 02:51:00 PM 38.4177 -80.8688 326° Northwest  Level FlightAware Approximate
Fri 02:51:17 PM 38.4039 -80.9139 327° Northwest 154 177 7,400  Level Indianapolis Center
Fri 02:52:19 PM 38.4411 -80.9444 327° Northwest 158 182 7,700 290 Climbing Indianapolis Center
Fri 02:53:21 PM 38.4789 -80.9733 329° Northwest 159 183 8,000 145 Climbing Indianapolis Center
Fri 02:54:23 PM 38.5203 -81.0003 333° Northwest 166 191 8,000  Level Indianapolis Center
Fri 02:55:25 PM 38.5575 -81.0325 326° Northwest 163 188 8,000  Level Indianapolis Center
Fri 02:56:27 PM 38.6050 -81.0697 329° Northwest 169 194 8,000  Level Indianapolis Center
Fri 02:57:29 PM 38.6414 -81.1022 325° Northwest 161 185 8,000  Level Indianapolis Center
Fri 02:58:31 PM 38.6781 -81.1372 323° Northwest 164 189 8,000  Level Indianapolis Center
Fri 02:59:33 PM 38.7136 -81.1725 322° Northwest 162 186 8,000  Level Indianapolis Center
Fri 03:00:35 PM 38.7506 -81.2053 325° Northwest 162 186 8,000  Level Indianapolis Center
Fri 03:01:37 PM 38.7894 -81.2364 328° Northwest 165 190 8,000  Level Indianapolis Center
Fri 03:02:39 PM 38.8344 -81.2742 327° Northwest 163 188 8,000  Level Indianapolis Center
Fri 03:03:41 PM 38.8719 -81.3056 327° Northwest 162 186 8,000  Level Indianapolis Center
Fri 03:04:43 PM 38.9094 -81.3378 326° Northwest 162 186 8,000  Level Indianapolis Center
Fri 03:05:45 PM 38.9467 -81.3694 327° Northwest 162 186 8,000  Level Indianapolis Center
Fri 03:06:47 PM 38.9844 -81.3997 328° Northwest 160 184 8,000  Level Indianapolis Center
Fri 03:07:50 PM 39.0297 -81.4383 326° Northwest 163 188 8,000  Level Indianapolis Center
Fri 03:08:52 PM 39.0664 -81.4703 326° Northwest 161 185 8,000  Level Indianapolis Center
Fri 03:09:54 PM 39.1042 -81.5006 328° Northwest 159 183 8,000  Level Indianapolis Center
Fri 03:10:56 PM 39.1403 -81.5328 325° Northwest 160 184 8,000  Level Indianapolis Center
Fri 03:11:58 PM 39.1772 -81.5631 328° Northwest 157 181 8,000  Level Indianapolis Center
Fri 03:13:00 PM 39.2139 -81.5944 326° Northwest 158 182 8,000  Level Indianapolis Center
Fri 03:14:02 PM 39.2567 -81.6303 327° Northwest 154 177 8,000  Level Indianapolis Center
Fri 03:15:04 PM 39.2925 -81.6614 326° Northwest 154 177 8,000  Level Indianapolis Center
Fri 03:16:06 PM 39.3283 -81.6914 327° Northwest 154 177 8,000  Level Indianapolis Center
Fri 03:17:08 PM 39.3642 -81.7219 327° Northwest 154 177 8,000  Level Indianapolis Center
Fri 03:18:10 PM 39.4011 -81.7536 326° Northwest 157 181 8,000  Level Indianapolis Center
Fri 03:19:12 PM 39.4378 -81.7844 327° Northwest 158 182 8,000  Level Indianapolis Center
Fri 03:20:14 PM 39.4794 -81.8219 325° Northwest 153 176 8,000  Level Indianapolis Center
Fri 03:21:16 PM 39.5161 -81.8522 328° Northwest 155 178 8,000  Level Indianapolis Center
Fri 03:22:18 PM 39.5511 -81.8819 327° Northwest 153 176 8,000  Level Indianapolis Center
Fri 03:23:20 PM 39.5864 -81.9122 327° Northwest 151 174 8,000  Level Indianapolis Center
Fri 03:24:22 PM 39.6211 -81.9450 324° Northwest 153 176 8,000  Level Indianapolis Center
Fri 03:25:24 PM 39.6575 -81.9767 326° Northwest 155 178 8,000  Level Indianapolis Center
Fri 03:25:57 PM 39.6839 -81.9994 326° Northwest 157 181 8,000  Level Indianapolis Center
Fri 03:26:27 PM 39.7008 -82.0119 330° Northwest 154 177 8,000  Level Indianapolis Center
Fri 03:27:29 PM 39.7378 -82.0431 327° Northwest 157 181 8,000  Level Indianapolis Center
Fri 03:28:23 PM 39.7694 -82.0731 324° Northwest 155 178 8,000  Level Indianapolis Center
Fri 03:29:33 PM 39.8089 -82.1056 328° Northwest 153 176 8,000  Level Indianapolis Center
Fri 03:30:35 PM 39.8436 -82.1353 327° Northwest 153 176 8,000  Level Indianapolis Center
Fri 03:31:32 PM 39.8828 -82.1714 325° Northwest 156 180 8,000  Level Indianapolis Center
Fri 03:32:21 PM 39.9144 -82.1964 329° Northwest 156 180 8,000  Level Indianapolis Center
Fri 03:33:34 PM 39.9581 -82.2364 325° Northwest 156 180 8,000  Level Indianapolis Center
Fri 03:34:35 PM 39.9939 -82.2672 327° Northwest 158 182 8,000  Level Indianapolis Center
Fri 03:35:30 PM 40.0275 -82.2981 325° Northwest 161 185 8,000  Level Indianapolis Center
Fri 03:36:37 PM 40.0694 -82.3322 328° Northwest 162 186 8,000  Level Indianapolis Center
Fri 03:37:32 PM 40.1031 -82.3631 325° Northwest 163 188 8,000  Level Indianapolis Center
Fri 03:38:51 PM 40.1525 -82.4050 327° Northwest 161 185 8,000  Level Indianapolis Center
Fri 03:39:53 PM 40.1900 -82.4378 326° Northwest 162 186 8,000  Level Indianapolis Center
Fri 03:40:55 PM 40.2269 -82.4714 325° Northwest 162 186 8,000  Level Indianapolis Center
Fri 03:41:57 PM 40.2675 -82.5064 327° Northwest 163 188 8,000  Level Indianapolis Center
Fri 03:42:59 PM 40.3081 -82.5394 328° Northwest 167 192 8,000  Level Indianapolis Center
Fri 03:44:01 PM 40.3492 -82.5678 332° Northwest 166 191 8,000  Level Indianapolis Center
Fri 03:45:03 PM 40.3875 -82.5986 329° Northwest 163 188 8,000  Level Indianapolis Center
Fri 03:46:05 PM 40.4258 -82.6325 326° Northwest 163 188 8,000  Level Indianapolis Center
Fri 03:47:08 PM 40.4628 -82.6681 324° Northwest 164 189 8,000  Level Indianapolis Center
Fri 03:48:10 PM 40.5006 -82.7008 327° Northwest 161 185 8,000  Level Indianapolis Center
Fri 03:49:12 PM 40.5453 -82.7400 326° Northwest 164 189 8,000  Level Indianapolis Center
Fri 03:50:14 PM 40.5828 -82.7750 325° Northwest 164 189 8,000  Level Indianapolis Center
Fri 03:51:16 PM 40.6208 -82.8089 326° Northwest 164 189 8,000  Level Indianapolis Center
Fri 03:52:18 PM 40.6583 -82.8442 324° Northwest 164 189 8,000  Level Indianapolis Center
Fri 03:53:20 PM 40.6964 -82.8764 327° Northwest 162 186 8,000  Level Indianapolis Center
Fri 03:54:22 PM 40.7342 -82.9125 324° Northwest 165 190 8,000  Level Indianapolis Center
Fri 03:55:24 PM 40.7725 -82.9472 326° Northwest 166 191 8,000 -48 Level Indianapolis Center
Fri 03:56:26 PM 40.8178 -82.9883 326° Northwest 166 191 7,900 -97 Descending Indianapolis Center

Login

Don't have an account? Register now (free) for customized features, flight alerts, and more!